Time;durP1;ratioP1;P1;durP2;ratioP2;P2;SDS_P1;SDS_P2;PMS_P1;PMS_P2;Temp;Humidity;BMP_temperature;BMP_pressure;BME280_temperature;BME280_humidity;BME280_pressure;Samples;Min_cycle;Max_cycle;Signal;HPM_P1;HPM_P2
2021/10/17 00:01:12;;;;;;;;;9.75;9.75;;;;;17.55;100.00;101548.88;5071632;28;45671;-82
2021/10/17 00:03:37;;;;;;;;;16.50;14.25;;;;;17.51;100.00;101545.59;5073497;27;45377;-82
2021/10/17 00:06:03;;;;;;;;;21.00;16.00;;;;;17.47;100.00;101549.50;5080861;27;46541;-82
2021/10/17 00:08:28;;;;;;;;;17.25;15.25;;;;;17.45;100.00;101534.59;5074081;28;45421;-82
2021/10/17 00:10:54;;;;;;;;;13.00;13.00;;;;;17.54;100.00;101537.34;5081499;28;45390;-82
2021/10/17 00:13:19;;;;;;;;;23.00;12.75;;;;;17.49;100.00;101544.00;5074572;27;45592;-82
2021/10/17 00:15:45;;;;;;;;;19.75;15.75;;;;;17.52;100.00;101536.59;5083842;27;45480;-82
2021/10/17 00:18:10;;;;;;;;;16.50;13.75;;;;;17.55;100.00;101546.19;5073699;28;45455;-82
2021/10/17 00:20:37;;;;;;;;;13.00;12.00;;;;;17.50;100.00;101543.03;5081846;27;45251;-82
2021/10/17 00:23:02;;;;;;;;;22.75;13.25;;;;;17.44;100.00;101543.56;5075493;28;45236;-82
2021/10/17 00:25:27;;;;;;;;;12.50;12.50;;;;;17.39;100.00;101533.25;5071494;27;45599;-82
2021/10/17 00:27:53;;;;;;;;;14.50;14.50;;;;;17.35;100.00;101525.66;5072297;28;46828;-82
2021/10/17 00:30:19;;;;;;;;;13.25;12.25;;;;;17.38;100.00;101534.25;5078009;27;45402;-82
2021/10/17 00:32:44;;;;;;;;;17.50;12.75;;;;;17.35;100.00;101529.16;5076032;28;45560;-82
2021/10/17 00:35:12;;;;;;;;;15.00;13.50;;;;;17.28;100.00;101527.13;5068157;28;48077;-82
2021/10/17 00:37:38;;;;;;;;;14.50;12.25;;;;;17.27;100.00;101525.44;5074823;28;45502;-82
2021/10/17 00:40:07;;;;;;;;;15.00;13.00;;;;;17.26;100.00;101535.28;5078134;28;45492;-82
2021/10/17 00:42:33;;;;;;;;;14.25;10.25;;;;;17.20;100.00;101531.31;5084599;27;46232;-82
2021/10/17 00:45:01;;;;;;;;;14.50;14.00;;;;;17.19;100.00;101542.94;5080415;28;45515;-82
2021/10/17 00:47:27;;;;;;;;;20.25;15.00;;;;;17.25;100.00;101549.59;5070499;27;45761;-81
2021/10/17 00:49:53;;;;;;;;;19.50;12.50;;;;;17.24;100.00;101552.38;5078674;28;45487;-81
2021/10/17 00:52:20;;;;;;;;;18.25;15.25;;;;;17.27;100.00;101539.63;5087252;27;45574;-82
2021/10/17 00:54:46;;;;;;;;;18.50;15.00;;;;;17.29;100.00;101540.38;5080892;28;45183;-81
2021/10/17 00:57:12;;;;;;;;;17.50;14.25;;;;;17.19;100.00;101534.94;5077638;28;45442;-82
2021/10/17 00:59:38;;;;;;;;;18.00;15.00;;;;;17.20;100.00;101530.44;5068261;28;45246;-81
2021/10/17 01:02:04;;;;;;;;;14.50;14.25;;;;;17.14;100.00;101528.25;5076925;28;45446;-81
2021/10/17 01:04:31;;;;;;;;;16.75;14.25;;;;;17.16;100.00;101529.84;5079426;28;48129;-81
2021/10/17 01:06:56;;;;;;;;;14.00;14.00;;;;;17.26;100.00;101526.41;5081189;27;45387;-82
2021/10/17 01:09:22;;;;;;;;;14.25;13.75;;;;;17.19;100.00;101523.41;5081099;28;45696;-82
2021/10/17 01:11:48;;;;;;;;;23.75;14.00;;;;;17.16;100.00;101519.16;5067105;27;45705;-82
2021/10/17 01:14:18;;;;;;;;;19.25;17.00;;;;;17.10;100.00;101517.00;5088625;27;46113;-81
2021/10/17 01:16:44;;;;;;;;;16.25;12.50;;;;;17.09;100.00;101528.66;5096127;28;44970;-81
2021/10/17 01:19:09;;;;;;;;;15.00;13.50;;;;;17.06;100.00;101526.22;5085963;28;45254;-81
2021/10/17 01:21:37;;;;;;;;;15.00;13.00;;;;;16.93;100.00;101530.91;5068872;27;45568;-81
2021/10/17 01:24:04;;;;;;;;;17.50;14.50;;;;;16.98;100.00;101526.03;5063038;28;46117;-81
2021/10/17 01:26:29;;;;;;;;;15.75;14.25;;;;;17.07;100.00;101511.91;5075538;28;45724;-81
2021/10/17 01:28:54;;;;;;;;;15.25;13.75;;;;;17.08;100.00;101520.78;5081230;28;45506;-81
2021/10/17 01:31:20;;;;;;;;;14.25;14.00;;;;;16.90;100.00;101516.94;5070414;27;45683;-82
2021/10/17 01:33:45;;;;;;;;;20.25;16.00;;;;;16.94;100.00;101518.38;5058897;27;48452;-81
2021/10/17 01:36:11;;;;;;;;;22.00;13.00;;;;;17.04;100.00;101514.84;5078341;28;45231;-81
2021/10/17 01:38:36;;;;;;;;;17.25;14.75;;;;;17.08;100.00;101516.28;5080514;27;45775;-81
2021/10/17 01:41:02;;;;;;;;;15.50;13.25;;;;;16.98;100.00;101517.16;5078484;27;45764;-81
2021/10/17 01:43:27;;;;;;;;;19.25;16.00;;;;;16.90;100.00;101524.94;5068094;27;45538;-81
2021/10/17 01:45:53;;;;;;;;;15.00;12.00;;;;;17.01;100.00;101531.13;5078469;28;45330;-81
2021/10/17 01:48:18;;;;;;;;;16.25;14.00;;;;;17.05;100.00;101515.69;5079801;27;45302;-81
2021/10/17 01:50:44;;;;;;;;;17.75;16.25;;;;;17.01;100.00;101516.94;5078881;27;45264;-82
2021/10/17 01:53:10;;;;;;;;;18.75;14.25;;;;;17.08;100.00;101521.63;5078088;28;46335;-82
2021/10/17 01:55:35;;;;;;;;;19.75;15.50;;;;;16.94;100.00;101524.56;5076069;28;45489;-81
2021/10/17 01:58:00;;;;;;;;;20.25;15.75;;;;;16.86;100.00;101519.00;5067657;28;45306;-81
2021/10/17 02:00:26;;;;;;;;;17.75;14.00;;;;;16.86;100.00;101521.69;5065433;27;45727;-82
2021/10/17 02:02:51;;;;;;;;;17.25;14.00;;;;;16.82;100.00;101523.75;5078977;27;46151;-82
2021/10/17 02:05:17;;;;;;;;;17.50;13.75;;;;;16.76;100.00;101526.06;5076433;28;45951;-81
2021/10/17 02:07:42;;;;;;;;;21.50;15.00;;;;;16.82;100.00;101520.25;5072263;27;45582;-81
2021/10/17 02:10:08;;;;;;;;;22.75;16.50;;;;;16.76;100.00;101523.41;5078043;27;45453;-82
2021/10/17 02:12:33;;;;;;;;;19.75;17.50;;;;;16.73;100.00;101527.19;5074130;27;45504;-81
2021/10/17 02:14:59;;;;;;;;;22.50;16.25;;;;;16.74;100.00;101515.53;5075374;27;45412;-82
2021/10/17 02:17:25;;;;;;;;;19.50;16.25;;;;;16.74;100.00;101522.69;5075455;28;45409;-81
2021/10/17 02:19:50;;;;;;;;;27.00;19.00;;;;;16.71;100.00;101515.78;5076971;27;45453;-81
2021/10/17 02:22:16;;;;;;;;;20.00;17.00;;;;;16.71;100.00;101512.25;5072213;27;46440;-82
2021/10/17 02:24:41;;;;;;;;;20.00;16.00;;;;;16.60;100.00;101510.44;5066459;28;45451;-82
2021/10/17 02:27:07;;;;;;;;;21.50;18.00;;;;;16.68;100.00;101512.50;5067747;28;45395;-82
2021/10/17 02:29:34;;;;;;;;;19.75;17.00;;;;;16.75;100.00;101511.06;5078776;28;45318;-81
2021/10/17 02:31:59;;;;;;;;;15.50;14.75;;;;;16.67;100.00;101508.97;5069884;27;45351;-81
2021/10/17 02:34:26;;;;;;;;;19.00;16.50;;;;;16.69;100.00;101509.72;5077755;27;45241;-81
2021/10/17 02:36:51;;;;;;;;;17.25;16.50;;;;;16.46;100.00;101508.88;5079830;27;45366;-82
2021/10/17 02:39:17;;;;;;;;;23.00;17.25;;;;;16.43;100.00;101511.78;5072869;27;45412;-81
2021/10/17 02:41:42;;;;;;;;;25.25;19.25;;;;;16.41;100.00;101511.03;5074616;27;46942;-82
2021/10/17 02:44:08;;;;;;;;;22.25;18.00;;;;;16.41;100.00;101521.72;5071370;28;45827;-82
2021/10/17 02:46:33;;;;;;;;;16.00;15.00;;;;;16.48;100.00;101512.25;5078510;27;45584;-82
2021/10/17 02:48:59;;;;;;;;;24.50;19.25;;;;;16.48;100.00;101514.91;5077780;28;45373;-81
2021/10/17 02:51:24;;;;;;;;;24.25;20.75;;;;;16.42;100.00;101512.75;5076539;28;47241;-82
2021/10/17 02:53:49;;;;;;;;;22.00;18.25;;;;;16.53;100.00;101514.56;5079444;27;45450;-82
2021/10/17 02:56:15;;;;;;;;;22.25;17.00;;;;;16.43;100.00;101509.13;5073648;27;45671;-81
2021/10/17 02:58:40;;;;;;;;;22.50;18.75;;;;;16.48;100.00;101508.72;5075486;27;45699;-81
2021/10/17 03:01:06;;;;;;;;;24.50;18.00;;;;;16.48;100.00;101491.91;5067132;28;48103;-82
2021/10/17 03:03:31;;;;;;;;;25.50;20.75;;;;;16.36;100.00;101491.91;5077470;27;45394;-81
2021/10/17 03:05:56;;;;;;;;;19.50;17.50;;;;;16.42;100.00;101501.22;5078746;27;45313;-82
2021/10/17 03:08:22;;;;;;;;;21.75;19.75;;;;;16.37;100.00;101498.09;5094598;27;45425;-82
2021/10/17 03:10:47;;;;;;;;;23.00;18.25;;;;;16.36;100.00;101501.72;5080677;28;45457;-82
2021/10/17 03:13:12;;;;;;;;;21.75;19.00;;;;;16.39;100.00;101507.66;5079369;28;45441;-81
2021/10/17 03:15:38;;;;;;;;;23.00;20.00;;;;;16.45;100.00;101504.53;5084422;27;45279;-81
2021/10/17 03:18:03;;;;;;;;;20.75;18.25;;;;;16.30;100.00;101512.88;5083241;27;45418;-81
2021/10/17 03:20:28;;;;;;;;;25.75;21.00;;;;;16.45;100.00;101506.34;5082181;27;45240;-82
2021/10/17 03:22:54;;;;;;;;;21.75;17.75;;;;;16.44;100.00;101505.47;5073527;27;45297;-82
2021/10/17 03:25:19;;;;;;;;;26.75;22.25;;;;;16.48;100.00;101499.91;5071579;28;45294;-82
2021/10/17 03:27:45;;;;;;;;;22.00;16.00;;;;;16.41;100.00;101497.72;5080497;28;45386;-82
2021/10/17 03:30:10;;;;;;;;;20.75;17.75;;;;;16.48;100.00;101506.91;5080802;28;47975;-82
2021/10/17 03:32:35;;;;;;;;;23.50;19.50;;;;;16.46;100.00;101498.22;5077391;28;45461;-82
2021/10/17 03:35:03;;;;;;;;;21.50;17.75;;;;;16.38;100.00;101492.66;5082211;27;45452;-82
2021/10/17 03:37:33;;;;;;;;;23.25;20.25;;;;;16.44;100.00;101497.50;5082248;27;45237;-82
2021/10/17 03:39:59;;;;;;;;;25.25;20.00;;;;;16.29;100.00;101489.88;5080172;27;45558;-81
2021/10/17 03:42:25;;;;;;;;;15.00;15.00;;;;;16.31;100.00;101482.56;5081805;27;45253;-81
2021/10/17 03:44:51;;;;;;;;;22.50;20.00;;;;;16.20;100.00;101479.94;5080761;28;45523;-82
2021/10/17 03:47:16;;;;;;;;;22.50;19.25;;;;;16.09;100.00;101473.66;5081562;28;45593;-82
2021/10/17 03:49:41;;;;;;;;;24.25;19.50;;;;;16.20;100.00;101469.28;5080093;27;47243;-82
2021/10/17 03:52:07;;;;;;;;;32.25;21.00;;;;;16.24;100.00;101479.56;5081819;27;45306;-82
2021/10/17 03:54:32;;;;;;;;;25.50;18.50;;;;;16.21;100.00;101479.78;5079724;27;45352;-81
2021/10/17 03:56:58;;;;;;;;;18.25;16.00;;;;;16.14;100.00;101469.75;5081836;27;45417;-82
2021/10/17 03:59:23;;;;;;;;;25.00;17.75;;;;;16.22;100.00;101489.50;5067004;28;46772;-81
2021/10/17 04:01:48;;;;;;;;;28.00;22.00;;;;;16.18;100.00;101487.22;5063548;28;45457;-81
2021/10/17 04:04:14;;;;;;;;;19.25;17.50;;;;;16.19;100.00;101486.25;5080185;27;45473;-82
2021/10/17 04:06:39;;;;;;;;;21.75;19.25;;;;;16.18;100.00;101481.88;5068780;28;45936;-81
2021/10/17 04:09:04;;;;;;;;;20.25;18.75;;;;;16.01;100.00;101485.88;5065264;28;47186;-81
2021/10/17 04:11:30;;;;;;;;;24.25;21.25;;;;;16.10;100.00;101490.47;5070393;27;45404;-81
2021/10/17 04:13:56;;;;;;;;;24.25;20.00;;;;;16.15;100.00;101474.97;5071290;27;45677;-82
2021/10/17 04:16:21;;;;;;;;;22.75;18.00;;;;;16.07;100.00;101480.06;5076976;28;45463;-82
2021/10/17 04:18:46;;;;;;;;;28.75;21.50;;;;;16.04;100.00;101485.63;5066721;28;45295;-82
2021/10/17 04:21:12;;;;;;;;;29.00;20.75;;;;;15.97;100.00;101473.75;5069200;28;45453;-81
2021/10/17 04:23:37;;;;;;;;;29.50;20.75;;;;;15.88;100.00;101477.13;5073030;28;45449;-82
2021/10/17 04:26:02;;;;;;;;;26.75;18.25;;;;;15.85;100.00;101472.88;5074042;28;45421;-81
2021/10/17 04:28:28;;;;;;;;;27.50;19.00;;;;;15.79;100.00;101478.69;5075781;27;46812;-81
2021/10/17 04:30:53;;;;;;;;;22.75;17.75;;;;;15.80;100.00;101469.75;5071335;27;45472;-82
2021/10/17 04:33:19;;;;;;;;;24.75;20.50;;;;;15.78;100.00;101482.31;5073542;27;45878;-82
2021/10/17 04:35:44;;;;;;;;;20.50;20.50;;;;;15.79;100.00;101485.84;5062328;28;45701;-82
2021/10/17 04:38:10;;;;;;;;;17.50;13.00;;;;;15.65;100.00;101474.47;5075382;28;47244;-81
2021/10/17 04:40:36;;;;;;;;;20.00;19.50;;;;;15.70;100.00;101487.41;5077777;27;45513;-81
2021/10/17 04:43:03;;;;;;;;;25.25;22.75;;;;;15.66;100.00;101477.94;5060901;28;45394;-83
2021/10/17 04:45:29;;;;;;;;;21.75;19.00;;;;;15.63;100.00;101484.38;5069846;28;45429;-83
2021/10/17 04:47:54;;;;;;;;;25.25;18.50;;;;;15.65;100.00;101469.13;5072587;27;46069;-83
2021/10/17 04:50:20;;;;;;;;;21.25;18.25;;;;;15.68;100.00;101479.53;5066818;28;45369;-83
2021/10/17 04:52:47;;;;;;;;;22.00;18.25;;;;;15.61;100.00;101480.13;5069771;28;45453;-83
2021/10/17 04:55:13;;;;;;;;;23.50;23.00;;;;;15.58;100.00;101485.66;5073372;28;45369;-81
2021/10/17 04:57:38;;;;;;;;;22.75;21.25;;;;;15.60;100.00;101478.41;5070864;28;47073;-83
2021/10/17 05:00:05;;;;;;;;;26.25;23.25;;;;;15.66;100.00;101483.25;5062971;28;45284;-83
2021/10/17 05:02:30;;;;;;;;;27.00;21.75;;;;;15.68;100.00;101492.00;5078575;27;45550;-82
2021/10/17 05:04:56;;;;;;;;;27.00;20.00;;;;;15.70;100.00;101482.94;5079216;28;46149;-83
2021/10/17 05:07:21;;;;;;;;;23.25;19.50;;;;;15.75;100.00;101489.72;5072660;27;45480;-82
2021/10/17 05:09:46;;;;;;;;;28.00;21.00;;;;;15.74;100.00;101490.69;5075756;28;45388;-83
2021/10/17 05:12:12;;;;;;;;;28.50;22.00;;;;;15.70;100.00;101482.94;5076754;28;45620;-83
2021/10/17 05:14:37;;;;;;;;;20.50;19.50;;;;;15.76;100.00;101488.72;5069785;27;45414;-83
2021/10/17 05:17:02;;;;;;;;;33.00;22.75;;;;;15.76;100.00;101483.41;5065597;28;47034;-83
2021/10/17 05:19:28;;;;;;;;;27.50;24.50;;;;;15.75;100.00;101484.41;5082277;28;45508;-83
2021/10/17 05:21:54;;;;;;;;;27.75;19.25;;;;;15.71;100.00;101486.44;5074386;27;45473;-84
2021/10/17 05:24:19;;;;;;;;;27.50;21.00;;;;;15.75;100.00;101484.41;5080368;28;45539;-83
2021/10/17 05:26:45;;;;;;;;;24.50;19.25;;;;;15.66;100.00;101485.94;5072383;28;47967;-83
2021/10/17 05:29:10;;;;;;;;;24.50;20.00;;;;;15.56;100.00;101475.16;5085770;27;45244;-82
2021/10/17 05:31:36;;;;;;;;;24.50;17.00;;;;;15.61;100.00;101483.63;5081978;27;45369;-83
2021/10/17 05:34:02;;;;;;;;;26.00;21.50;;;;;15.73;100.00;101492.50;5079401;27;45393;-83
2021/10/17 05:36:27;;;;;;;;;26.00;22.00;;;;;15.67;100.00;101493.81;5071480;28;46849;-83
2021/10/17 05:38:53;;;;;;;;;30.25;22.25;;;;;15.68;100.00;101498.16;5075451;28;44835;-83
2021/10/17 05:41:22;;;;;;;;;19.75;18.25;;;;;15.79;100.00;101485.84;5089438;28;44837;-83
2021/10/17 05:43:50;;;;;;;;;19.50;17.50;;;;;15.80;100.00;101491.06;5094878;27;44934;-83
2021/10/17 05:46:15;;;;;;;;;26.25;23.25;;;;;15.78;100.00;101484.13;5096117;27;45270;-82
2021/10/17 05:48:41;;;;;;;;;21.75;18.75;;;;;15.80;100.00;101500.84;5078394;27;45287;-83
2021/10/17 05:51:07;;;;;;;;;21.75;20.00;;;;;15.77;100.00;101496.59;5075491;27;45308;-83
2021/10/17 05:53:32;;;;;;;;;26.25;21.75;;;;;15.66;100.00;101496.56;5080277;27;45528;-86
2021/10/17 05:55:57;;;;;;;;;23.25;19.25;;;;;15.49;100.00;101495.19;5082507;27;45928;-83
2021/10/17 05:58:23;;;;;;;;;23.50;18.75;;;;;15.58;100.00;101494.50;5082926;27;45482;-83
2021/10/17 06:00:48;;;;;;;;;28.00;18.50;;;;;15.54;100.00;101497.53;5064606;28;45488;-83
2021/10/17 06:03:13;;;;;;;;;20.50;18.00;;;;;15.42;100.00;101493.09;5075292;28;45260;-83
2021/10/17 06:05:39;;;;;;;;;21.25;18.25;;;;;15.37;100.00;101501.44;5080661;27;45627;-82
2021/10/17 06:08:05;;;;;;;;;20.50;19.50;;;;;15.36;100.00;101497.09;5068866;27;45413;-83
2021/10/17 06:10:31;;;;;;;;;28.25;21.75;;;;;15.42;100.00;101509.91;5076945;28;45416;-83
2021/10/17 06:12:56;;;;;;;;;21.00;16.25;;;;;15.42;100.00;101504.59;5075656;27;45477;-83
2021/10/17 06:15:22;;;;;;;;;18.50;17.50;;;;;15.17;100.00;101510.91;5095456;27;47105;-83
2021/10/17 06:17:47;;;;;;;;;24.50;22.50;;;;;15.24;100.00;101500.66;5074683;27;46331;-82
2021/10/17 06:20:13;;;;;;;;;28.25;25.00;;;;;15.26;100.00;101506.72;5072603;28;45492;-83
2021/10/17 06:22:38;;;;;;;;;32.75;22.00;;;;;15.22;100.00;101519.41;5074865;27;45266;-83
2021/10/17 06:25:04;;;;;;;;;24.50;22.50;;;;;15.22;100.00;101516.72;5069065;28;45357;-83
2021/10/17 06:27:29;;;;;;;;;31.75;20.50;;;;;15.27;100.00;101522.56;5074654;28;45463;-82
2021/10/17 06:29:55;;;;;;;;;25.75;19.50;;;;;15.23;100.00;101521.09;5078141;27;45510;-83
2021/10/17 06:32:20;;;;;;;;;23.00;19.00;;;;;15.24;100.00;101528.13;5074470;28;46236;-83
2021/10/17 06:34:46;;;;;;;;;22.50;17.75;;;;;15.19;100.00;101527.63;5074018;27;46020;-83
2021/10/17 06:37:11;;;;;;;;;18.25;17.75;;;;;15.28;100.00;101528.75;5081272;28;45371;-83
2021/10/17 06:39:37;;;;;;;;;26.25;19.75;;;;;15.27;100.00;101532.38;5080546;28;45366;-83
2021/10/17 06:42:03;;;;;;;;;26.50;19.25;;;;;15.23;100.00;101531.75;5069151;27;45751;-82
2021/10/17 06:44:28;;;;;;;;;20.50;18.75;;;;;15.25;100.00;101528.97;5075859;28;46531;-83
2021/10/17 06:46:54;;;;;;;;;28.00;23.00;;;;;15.27;100.00;101541.22;5073546;28;45394;-83
2021/10/17 06:49:20;;;;;;;;;27.75;19.25;;;;;15.29;100.00;101543.75;5073901;27;45654;-83
2021/10/17 06:51:45;;;;;;;;;27.75;20.25;;;;;15.38;100.00;101547.53;5078417;28;45523;-83
2021/10/17 06:54:11;;;;;;;;;27.75;19.25;;;;;15.38;100.00;101556.38;5090673;27;47504;-84
2021/10/17 06:56:36;;;;;;;;;26.50;20.00;;;;;15.27;100.00;101556.31;5080207;27;45466;-83
2021/10/17 06:59:02;;;;;;;;;25.25;23.00;;;;;15.14;100.00;101551.03;5071188;27;45528;-83
2021/10/17 07:01:28;;;;;;;;;20.50;18.25;;;;;15.11;100.00;101555.75;5070297;28;45322;-83
2021/10/17 07:03:53;;;;;;;;;21.75;19.75;;;;;15.14;100.00;101560.84;5072197;27;46143;-83
2021/10/17 07:06:19;;;;;;;;;25.25;18.75;;;;;15.00;100.00;101561.88;5074047;27;45449;-83
2021/10/17 07:08:44;;;;;;;;;25.50;20.50;;;;;15.04;100.00;101565.13;5069421;28;45390;-83
2021/10/17 07:11:10;;;;;;;;;22.50;20.00;;;;;14.92;100.00;101575.72;5074710;28;45409;-83
2021/10/17 07:13:35;;;;;;;;;24.50;18.00;;;;;14.94;100.00;101573.78;5079393;27;45495;-83
2021/10/17 07:16:00;;;;;;;;;27.25;23.25;;;;;15.11;100.00;101559.28;5079073;27;45205;-83
2021/10/17 07:18:26;;;;;;;;;29.00;20.50;;;;;15.12;100.00;101560.94;5080589;27;45275;-83
2021/10/17 07:20:51;;;;;;;;;25.50;20.50;;;;;15.27;100.00;101562.50;5078219;28;45651;-83
2021/10/17 07:23:17;;;;;;;;;23.75;19.00;;;;;15.29;100.00;101562.38;5073170;27;46181;-83
2021/10/17 07:25:43;;;;;;;;;22.50;20.50;;;;;15.33;100.00;101553.19;5078841;27;45357;-83
2021/10/17 07:28:08;;;;;;;;;25.00;19.50;;;;;15.48;100.00;101557.34;5078214;27;45401;-83
2021/10/17 07:30:34;;;;;;;;;26.50;19.50;;;;;15.52;100.00;101556.19;5076651;27;45330;-83
2021/10/17 07:32:59;;;;;;;;;27.00;21.75;;;;;15.70;100.00;101552.16;5075374;27;45367;-83
2021/10/17 07:35:25;;;;;;;;;28.50;23.75;;;;;15.75;100.00;101559.78;5068940;28;45468;-83
2021/10/17 07:37:50;;;;;;;;;28.25;21.00;;;;;15.90;100.00;101561.28;5076873;28;45337;-83
2021/10/17 07:40:15;;;;;;;;;27.00;23.75;;;;;16.37;100.00;101560.25;5079053;27;45439;-84
2021/10/17 07:42:41;;;;;;;;;28.25;22.75;;;;;17.06;100.00;101566.25;5079059;27;47460;-83
2021/10/17 07:45:07;;;;;;;;;30.50;23.75;;;;;17.94;100.00;101558.00;5077567;28;45563;-83
2021/10/17 07:47:36;;;;;;;;;21.00;20.75;;;;;18.44;100.00;101561.66;5073214;27;46170;-83
2021/10/17 07:50:06;;;;;;;;;21.75;19.00;;;;;19.23;100.00;101569.78;5077430;28;45687;-83
2021/10/17 07:52:32;;;;;;;;;29.50;21.75;;;;;19.78;100.00;101558.38;5069622;27;47412;-83
2021/10/17 07:54:57;;;;;;;;;27.25;23.00;;;;;20.26;100.00;101559.28;5075408;28;45717;-83
2021/10/17 07:57:23;;;;;;;;;23.00;21.00;;;;;20.52;100.00;101560.31;5082473;27;45361;-83
2021/10/17 07:59:48;;;;;;;;;28.75;22.75;;;;;20.58;97.87;101553.53;5070616;27;45501;-84
2021/10/17 08:02:13;;;;;;;;;22.00;20.25;;;;;20.75;97.00;101556.28;5075773;28;45482;-84
2021/10/17 08:04:40;;;;;;;;;21.75;19.75;;;;;21.04;93.34;101552.53;5078933;27;45484;-83
2021/10/17 08:07:06;;;;;;;;;32.50;23.00;;;;;21.54;96.16;101540.31;5069844;27;45390;-83
2021/10/17 08:09:32;;;;;;;;;30.50;22.25;;;;;21.88;88.93;101551.16;5077354;28;45926;-83
2021/10/17 08:11:58;;;;;;;;;29.50;25.25;;;;;22.31;89.76;101544.03;5073360;27;47250;-83
2021/10/17 08:14:23;;;;;;;;;22.50;19.75;;;;;22.83;82.71;101546.66;5071823;27;45441;-83
2021/10/17 08:16:49;;;;;;;;;20.25;19.50;;;;;23.13;82.13;101546.91;5063553;28;45209;-83
2021/10/17 08:19:14;;;;;;;;;29.00;20.50;;;;;23.43;78.40;101539.19;5078919;27;45708;-83
2021/10/17 08:21:40;;;;;;;;;22.25;20.50;;;;;23.23;71.43;101553.97;5070618;27;46005;-83
2021/10/17 08:24:05;;;;;;;;;24.00;21.00;;;;;23.48;75.51;101553.88;5063403;28;45288;-84
2021/10/17 08:26:31;;;;;;;;;24.50;20.50;;;;;24.18;73.12;101543.34;5063851;28;45457;-81
2021/10/17 08:28:56;;;;;;;;;26.25;24.00;;;;;24.17;67.45;101555.16;5062143;27;49584;-81
2021/10/17 08:31:22;;;;;;;;;22.50;19.50;;;;;23.71;69.56;101550.50;5062705;28;45795;-81
2021/10/17 08:33:47;;;;;;;;;22.25;20.50;;;;;23.97;71.19;101545.75;5062074;28;45463;-82
2021/10/17 08:36:13;;;;;;;;;18.25;17.50;;;;;24.83;69.57;101547.69;5066182;28;45460;-82
2021/10/17 08:38:39;;;;;;;;;23.50;18.25;;;;;25.63;67.07;101537.38;5074525;28;46241;-84
2021/10/17 08:41:06;;;;;;;;;22.00;18.50;;;;;26.13;61.88;101522.38;5081984;28;46355;-82
2021/10/17 08:43:31;;;;;;;;;21.25;17.75;;;;;26.59;56.88;101534.66;5079305;27;45316;-85
2021/10/17 08:45:57;;;;;;;;;20.25;18.50;;;;;26.90;58.01;101529.00;5063642;28;45351;-84
2021/10/17 08:48:28;;;;;;;;;25.25;18.00;;;;;26.61;53.13;101526.34;5073723;28;45422;-85
2021/10/17 08:50:53;;;;;;;;;20.00;18.00;;;;;26.08;55.11;101518.34;5071143;27;46661;-84
2021/10/17 08:53:19;;;;;;;;;23.25;21.25;;;;;25.96;58.52;101524.38;5067996;28;45501;-82
2021/10/17 08:55:45;;;;;;;;;22.00;20.75;;;;;25.96;59.27;101524.38;5061960;28;45440;-81
2021/10/17 08:58:10;;;;;;;;;23.50;20.50;;;;;25.89;58.58;101524.28;5064115;27;45725;-82
2021/10/17 09:00:36;;;;;;;;;17.00;17.00;;;;;25.95;57.25;101528.13;5059905;28;46007;-82
2021/10/17 09:03:02;;;;;;;;;23.75;18.25;;;;;25.68;54.86;101529.56;5069552;28;45397;-82
2021/10/17 09:05:40;;;;;;;;;19.25;17.50;;;;;25.43;56.38;101528.91;5093345;27;45385;-82
2021/10/17 09:08:08;;;;;;;;;21.25;18.25;;;;;25.49;57.24;101532.75;5062115;28;45212;-81
2021/10/17 09:10:34;;;;;;;;;23.00;18.75;;;;;25.48;56.25;101534.63;5064126;28;46217;-82
2021/10/17 09:13:14;;;;;;;;;20.00;17.50;;;;;25.45;54.35;101534.13;5071517;28;45475;-83
2021/10/17 09:15:41;;;;;;;;;21.75;18.75;;;;;25.81;54.29;101545.19;5069529;27;45336;-82
2021/10/17 09:18:13;;;;;;;;;19.50;18.00;;;;;26.04;53.73;101540.53;5065965;28;45464;-83
2021/10/17 09:20:48;;;;;;;;;26.50;20.50;;;;;26.01;53.83;101547.19;5068848;28;45347;-82
2021/10/17 09:23:31;;;;;;;;;24.25;19.00;;;;;26.42;55.08;101538.63;5062464;28;45310;-86
2021/10/17 09:25:59;;;;;;;;;18.25;15.75;;;;;26.54;55.64;101542.53;5065445;28;45318;-84
2021/10/17 09:28:29;;;;;;;;;25.75;19.50;;;;;26.74;54.08;101531.97;5067191;27;45169;-83
2021/10/17 09:31:10;;;;;;;;;19.50;16.00;;;;;26.54;53.05;101536.28;5069761;28;46120;-82
2021/10/17 09:33:46;;;;;;;;;17.00;15.75;;;;;26.61;53.42;101539.91;5064777;28;45502;-83
2021/10/17 09:36:31;;;;;;;;;22.25;18.25;;;;;26.87;52.73;101534.81;5077133;27;45500;-83
2021/10/17 09:41:53;;;;;;;;;24.00;19.75;;;;;26.65;50.04;101527.69;5073037;27;46323;-82
2021/10/17 09:44:19;;;;;;;;;25.00;17.00;;;;;26.17;53.00;101520.94;5065582;28;45603;-82
2021/10/17 09:46:58;;;;;;;;;19.75;15.75;;;;;26.36;51.99;101518.56;5067899;28;45395;-85
2021/10/17 09:49:25;;;;;;;;;21.50;18.50;;;;;26.41;51.72;101520.69;5064480;28;45345;-82
2021/10/17 09:52:13;;;;;;;;;14.50;12.50;;;;;26.56;52.00;101515.25;5064448;28;47125;-82
2021/10/17 09:54:39;;;;;;;;;16.50;15.00;;;;;26.35;51.22;101510.59;5060163;28;45541;-81
2021/10/17 09:57:06;;;;;;;;;18.00;18.00;;;;;26.07;50.47;101515.81;5078259;28;45347;-83
2021/10/17 09:59:31;;;;;;;;;19.00;16.00;;;;;26.11;51.22;101517.13;5066162;27;45545;-83
2021/10/17 10:01:57;;;;;;;;;18.00;16.50;;;;;26.09;50.08;101513.75;5068402;28;46601;-83
2021/10/17 10:04:25;;;;;;;;;15.00;15.00;;;;;25.97;50.99;101517.94;5075435;28;45225;-82
2021/10/17 10:06:52;;;;;;;;;19.00;17.75;;;;;25.99;51.13;101518.59;5070160;27;45388;-83
2021/10/17 10:09:20;;;;;;;;;15.75;14.50;;;;;25.85;51.07;101512.16;5093073;28;45670;-82
2021/10/17 10:11:46;;;;;;;;;22.00;17.00;;;;;25.61;50.54;101520.50;5079966;28;45415;-81
2021/10/17 10:14:13;;;;;;;;;19.75;17.00;;;;;25.20;51.52;101519.97;5068894;27;45830;-83
2021/10/17 10:16:39;;;;;;;;;22.50;17.25;;;;;25.10;59.96;101520.19;5069112;28;45375;-86
2021/10/17 10:19:08;;;;;;;;;19.25;15.00;;;;;25.39;54.33;101515.94;5064422;28;45530;-83
2021/10/17 10:21:35;;;;;;;;;15.75;13.50;;;;;25.39;53.86;101513.22;5065778;28;45443;-84
2021/10/17 10:24:04;;;;;;;;;18.00;15.00;;;;;25.57;54.20;101520.00;5060781;28;45334;-82
2021/10/17 10:26:31;;;;;;;;;19.50;17.25;;;;;25.82;53.21;101522.50;5062759;28;45447;-83
2021/10/17 10:28:57;;;;;;;;;16.00;15.50;;;;;26.15;52.44;101518.41;5079998;27;46018;-82
2021/10/17 10:31:42;;;;;;;;;17.00;16.00;;;;;26.41;50.42;101517.97;5070689;28;47179;-84
2021/10/17 10:34:21;;;;;;;;;14.75;14.50;;;;;26.52;49.44;101516.66;5068559;27;45556;-84
2021/10/17 10:37:10;;;;;;;;;17.75;16.00;;;;;26.35;49.03;101521.44;5073114;27;45406;-85
2021/10/17 10:39:35;;;;;;;;;17.00;13.50;;;;;25.87;51.12;101522.78;5069364;27;45297;-93
2021/10/17 10:42:14;;;;;;;;;16.25;15.00;;;;;25.52;54.61;101508.03;5072376;28;46858;-94
2021/10/17 10:44:42;;;;;;;;;19.25;17.25;;;;;25.29;53.41;101518.88;5072274;28;45421;-93
2021/10/17 10:47:27;;;;;;;;;18.00;14.25;;;;;25.17;52.86;101509.50;5076760;28;45302;-92
2021/10/17 10:49:55;;;;;;;;;16.50;14.25;;;;;25.19;56.60;101519.13;5075345;27;45471;-93
2021/10/17 10:52:23;;;;;;;;;14.00;11.75;;;;;25.26;52.65;101508.41;5076890;28;47173;-92
2021/10/17 10:54:49;;;;;;;;;19.25;14.50;;;;;25.23;55.96;101517.72;5081809;27;46033;-88
2021/10/17 10:57:19;;;;;;;;;19.50;15.50;;;;;25.55;53.59;101504.97;5071742;28;45565;-88
2021/10/17 11:00:04;;;;;;;;;15.25;15.00;;;;;25.42;51.17;101516.41;5062654;28;45540;-84
2021/10/17 11:02:30;;;;;;;;;15.50;13.25;;;;;25.11;52.20;101507.53;5063761;28;46386;-85
2021/10/17 11:05:18;;;;;;;;;17.75;13.75;;;;;24.79;52.08;101508.53;5060588;27;45550;-86